sensor_id;sensor_type;location;lat;lon;timestamp;P1;durP1;ratioP1;P2;durP2;ratioP2
15938;SDS011;8068;51.322;9.450;2022-11-21T00:01:48;25.83;;;16.60;;
15938;SDS011;8068;51.322;9.450;2022-11-21T00:04:17;26.03;;;15.87;;
15938;SDS011;8068;51.322;9.450;2022-11-21T00:06:51;23.23;;;14.40;;
15938;SDS011;8068;51.322;9.450;2022-11-21T00:09:18;18.00;;;13.90;;
15938;SDS011;8068;51.322;9.450;2022-11-21T00:11:49;19.60;;;13.17;;
15938;SDS011;8068;51.322;9.450;2022-11-21T00:14:18;21.90;;;13.57;;
15938;SDS011;8068;51.322;9.450;2022-11-21T00:16:48;21.03;;;13.70;;
15938;SDS011;8068;51.322;9.450;2022-11-21T00:19:21;17.80;;;12.53;;
15938;SDS011;8068;51.322;9.450;2022-11-21T00:21:47;21.03;;;14.10;;
15938;SDS011;8068;51.322;9.450;2022-11-21T00:24:22;21.50;;;14.40;;
15938;SDS011;8068;51.322;9.450;2022-11-21T00:26:52;16.40;;;13.00;;
15938;SDS011;8068;51.322;9.450;2022-11-21T00:29:21;22.00;;;13.07;;
15938;SDS011;8068;51.322;9.450;2022-11-21T00:31:51;20.47;;;12.93;;
15938;SDS011;8068;51.322;9.450;2022-11-21T00:34:21;16.53;;;11.80;;
15938;SDS011;8068;51.322;9.450;2022-11-21T00:36:50;14.77;;;11.33;;
15938;SDS011;8068;51.322;9.450;2022-11-21T00:39:20;16.03;;;11.60;;
15938;SDS011;8068;51.322;9.450;2022-11-21T00:41:52;16.00;;;11.33;;
15938;SDS011;8068;51.322;9.450;2022-11-21T00:44:22;13.37;;;10.13;;
15938;SDS011;8068;51.322;9.450;2022-11-21T00:46:52;11.37;;;9.10;;
15938;SDS011;8068;51.322;9.450;2022-11-21T00:49:21;12.57;;;9.30;;
15938;SDS011;8068;51.322;9.450;2022-11-21T00:51:53;9.67;;;8.60;;
15938;SDS011;8068;51.322;9.450;2022-11-21T00:54:22;12.60;;;10.40;;
15938;SDS011;8068;51.322;9.450;2022-11-21T00:56:52;9.43;;;8.50;;
15938;SDS011;8068;51.322;9.450;2022-11-21T00:59:21;10.97;;;9.13;;
15938;SDS011;8068;51.322;9.450;2022-11-21T01:01:52;10.60;;;9.13;;
15938;SDS011;8068;51.322;9.450;2022-11-21T01:04:22;8.93;;;7.90;;
15938;SDS011;8068;51.322;9.450;2022-11-21T01:06:52;11.80;;;9.27;;
15938;SDS011;8068;51.322;9.450;2022-11-21T01:09:25;11.73;;;9.50;;
15938;SDS011;8068;51.322;9.450;2022-11-21T01:11:55;9.90;;;8.87;;
15938;SDS011;8068;51.322;9.450;2022-11-21T01:14:24;8.70;;;7.93;;
15938;SDS011;8068;51.322;9.450;2022-11-21T01:16:54;9.20;;;8.30;;
15938;SDS011;8068;51.322;9.450;2022-11-21T01:19:24;9.57;;;8.67;;
15938;SDS011;8068;51.322;9.450;2022-11-21T01:21:53;10.60;;;8.60;;
15938;SDS011;8068;51.322;9.450;2022-11-21T01:24:23;8.53;;;7.73;;
15938;SDS011;8068;51.322;9.450;2022-11-21T01:26:53;8.23;;;7.50;;
15938;SDS011;8068;51.322;9.450;2022-11-21T01:29:22;8.37;;;7.70;;
15938;SDS011;8068;51.322;9.450;2022-11-21T01:31:52;9.43;;;8.47;;
15938;SDS011;8068;51.322;9.450;2022-11-21T01:34:21;9.90;;;8.30;;
15938;SDS011;8068;51.322;9.450;2022-11-21T01:36:53;9.10;;;7.93;;
15938;SDS011;8068;51.322;9.450;2022-11-21T01:39:23;9.77;;;8.80;;
15938;SDS011;8068;51.322;9.450;2022-11-21T01:41:52;9.67;;;8.80;;
15938;SDS011;8068;51.322;9.450;2022-11-21T01:44:25;8.67;;;7.93;;
15938;SDS011;8068;51.322;9.450;2022-11-21T01:47:09;9.37;;;8.47;;
15938;SDS011;8068;51.322;9.450;2022-11-21T01:49:36;8.90;;;8.10;;
15938;SDS011;8068;51.322;9.450;2022-11-21T01:52:35;9.03;;;8.33;;
15938;SDS011;8068;51.322;9.450;2022-11-21T01:55:00;9.33;;;8.37;;
15938;SDS011;8068;51.322;9.450;2022-11-21T01:57:38;6.80;;;6.30;;
15938;SDS011;8068;51.322;9.450;2022-11-21T02:02:52;5.10;;;4.80;;
15938;SDS011;8068;51.322;9.450;2022-11-21T02:05:25;4.23;;;4.03;;
15938;SDS011;8068;51.322;9.450;2022-11-21T02:08:01;3.67;;;3.57;;
15938;SDS011;8068;51.322;9.450;2022-11-21T02:10:33;3.70;;;3.60;;
15938;SDS011;8068;51.322;9.450;2022-11-21T02:13:05;3.47;;;3.17;;
15938;SDS011;8068;51.322;9.450;2022-11-21T02:15:36;4.33;;;4.23;;
15938;SDS011;8068;51.322;9.450;2022-11-21T02:18:09;3.97;;;3.87;;
15938;SDS011;8068;51.322;9.450;2022-11-21T02:20:39;5.60;;;5.30;;
15938;SDS011;8068;51.322;9.450;2022-11-21T02:23:30;4.90;;;4.70;;
15938;SDS011;8068;51.322;9.450;2022-11-21T02:26:05;5.80;;;5.50;;
15938;SDS011;8068;51.322;9.450;2022-11-21T02:28:40;6.43;;;6.03;;
15938;SDS011;8068;51.322;9.450;2022-11-21T02:31:10;6.30;;;6.00;;
15938;SDS011;8068;51.322;9.450;2022-11-21T02:33:40;6.63;;;6.20;;
15938;SDS011;8068;51.322;9.450;2022-11-21T02:36:31;6.90;;;6.30;;
15938;SDS011;8068;51.322;9.450;2022-11-21T02:39:06;7.23;;;6.80;;
15938;SDS011;8068;51.322;9.450;2022-11-21T02:41:38;6.30;;;6.00;;
15938;SDS011;8068;51.322;9.450;2022-11-21T02:44:10;7.10;;;6.70;;
15938;SDS011;8068;51.322;9.450;2022-11-21T02:46:47;7.70;;;7.20;;
15938;SDS011;8068;51.322;9.450;2022-11-21T02:49:16;7.90;;;7.37;;
15938;SDS011;8068;51.322;9.450;2022-11-21T02:51:50;9.00;;;8.30;;
15938;SDS011;8068;51.322;9.450;2022-11-21T02:54:17;8.97;;;8.17;;
15938;SDS011;8068;51.322;9.450;2022-11-21T02:56:43;7.80;;;7.23;;
15938;SDS011;8068;51.322;9.450;2022-11-21T02:59:09;7.93;;;7.37;;
15938;SDS011;8068;51.322;9.450;2022-11-21T03:01:43;9.20;;;8.40;;
15938;SDS011;8068;51.322;9.450;2022-11-21T03:04:13;8.83;;;8.10;;
15938;SDS011;8068;51.322;9.450;2022-11-21T03:06:42;9.17;;;8.27;;
15938;SDS011;8068;51.322;9.450;2022-11-21T03:09:12;7.80;;;7.30;;
15938;SDS011;8068;51.322;9.450;2022-11-21T03:11:42;9.50;;;8.80;;
15938;SDS011;8068;51.322;9.450;2022-11-21T03:14:11;8.47;;;7.77;;
15938;SDS011;8068;51.322;9.450;2022-11-21T03:16:41;8.10;;;7.50;;
15938;SDS011;8068;51.322;9.450;2022-11-21T03:19:14;8.47;;;7.77;;
15938;SDS011;8068;51.322;9.450;2022-11-21T03:21:43;9.03;;;8.23;;
15938;SDS011;8068;51.322;9.450;2022-11-21T03:24:13;7.57;;;6.97;;
15938;SDS011;8068;51.322;9.450;2022-11-21T03:26:42;8.87;;;8.10;;
15938;SDS011;8068;51.322;9.450;2022-11-21T03:29:12;9.03;;;8.20;;
15938;SDS011;8068;51.322;9.450;2022-11-21T03:31:42;9.27;;;8.47;;
15938;SDS011;8068;51.322;9.450;2022-11-21T03:34:11;9.63;;;8.77;;
15938;SDS011;8068;51.322;9.450;2022-11-21T03:36:40;9.50;;;8.60;;
15938;SDS011;8068;51.322;9.450;2022-11-21T03:39:10;10.17;;;9.27;;
15938;SDS011;8068;51.322;9.450;2022-11-21T03:41:40;10.57;;;9.67;;
15938;SDS011;8068;51.322;9.450;2022-11-21T03:44:10;9.67;;;8.77;;
15938;SDS011;8068;51.322;9.450;2022-11-21T03:46:42;9.90;;;8.97;;
15938;SDS011;8068;51.322;9.450;2022-11-21T03:49:12;9.97;;;9.10;;
15938;SDS011;8068;51.322;9.450;2022-11-21T03:51:42;10.43;;;9.43;;
15938;SDS011;8068;51.322;9.450;2022-11-21T03:54:11;10.63;;;9.63;;
15938;SDS011;8068;51.322;9.450;2022-11-21T03:56:42;10.73;;;9.63;;
15938;SDS011;8068;51.322;9.450;2022-11-21T03:59:12;9.70;;;8.80;;
15938;SDS011;8068;51.322;9.450;2022-11-21T04:01:41;10.80;;;9.80;;
15938;SDS011;8068;51.322;9.450;2022-11-21T04:04:11;10.90;;;9.83;;
15938;SDS011;8068;51.322;9.450;2022-11-21T04:06:41;11.63;;;10.07;;
15938;SDS011;8068;51.322;9.450;2022-11-21T04:09:10;11.23;;;10.10;;
15938;SDS011;8068;51.322;9.450;2022-11-21T04:11:40;10.87;;;9.77;;
15938;SDS011;8068;51.322;9.450;2022-11-21T04:14:13;11.07;;;9.47;;
15938;SDS011;8068;51.322;9.450;2022-11-21T04:16:43;13.17;;;10.60;;
15938;SDS011;8068;51.322;9.450;2022-11-21T04:19:12;12.13;;;9.90;;
15938;SDS011;8068;51.322;9.450;2022-11-21T04:21:42;9.57;;;8.77;;
15938;SDS011;8068;51.322;9.450;2022-11-21T04:24:14;11.50;;;10.07;;
15938;SDS011;8068;51.322;9.450;2022-11-21T04:26:43;9.43;;;8.63;;
15938;SDS011;8068;51.322;9.450;2022-11-21T04:29:13;10.93;;;9.93;;
15938;SDS011;8068;51.322;9.450;2022-11-21T04:31:42;10.07;;;9.17;;
15938;SDS011;8068;51.322;9.450;2022-11-21T04:34:12;10.13;;;9.17;;
15938;SDS011;8068;51.322;9.450;2022-11-21T04:36:42;9.80;;;8.63;;
15938;SDS011;8068;51.322;9.450;2022-11-21T04:39:11;10.07;;;9.03;;
15938;SDS011;8068;51.322;9.450;2022-11-21T04:41:44;8.67;;;7.93;;
15938;SDS011;8068;51.322;9.450;2022-11-21T04:44:14;9.33;;;8.47;;
15938;SDS011;8068;51.322;9.450;2022-11-21T04:46:43;9.80;;;8.90;;
15938;SDS011;8068;51.322;9.450;2022-11-21T04:49:13;10.13;;;9.23;;
15938;SDS011;8068;51.322;9.450;2022-11-21T04:51:45;9.80;;;8.90;;
15938;SDS011;8068;51.322;9.450;2022-11-21T04:54:14;9.53;;;8.63;;
15938;SDS011;8068;51.322;9.450;2022-11-21T04:56:43;9.30;;;8.50;;
15938;SDS011;8068;51.322;9.450;2022-11-21T04:59:13;10.17;;;9.30;;
15938;SDS011;8068;51.322;9.450;2022-11-21T05:01:43;10.30;;;9.40;;
15938;SDS011;8068;51.322;9.450;2022-11-21T05:04:12;9.80;;;8.87;;
15938;SDS011;8068;51.322;9.450;2022-11-21T05:06:42;10.20;;;9.07;;
15938;SDS011;8068;51.322;9.450;2022-11-21T05:09:15;12.07;;;9.40;;
15938;SDS011;8068;51.322;9.450;2022-11-21T05:11:45;10.50;;;9.50;;
15938;SDS011;8068;51.322;9.450;2022-11-21T05:14:30;10.03;;;9.03;;
15938;SDS011;8068;51.322;9.450;2022-11-21T05:17:03;10.50;;;9.50;;
15938;SDS011;8068;51.322;9.450;2022-11-21T05:19:29;10.50;;;9.40;;
15938;SDS011;8068;51.322;9.450;2022-11-21T05:21:55;12.43;;;9.40;;
15938;SDS011;8068;51.322;9.450;2022-11-21T05:24:21;10.87;;;9.90;;
15938;SDS011;8068;51.322;9.450;2022-11-21T05:26:55;14.80;;;11.30;;
15938;SDS011;8068;51.322;9.450;2022-11-21T05:29:21;12.63;;;10.20;;
15938;SDS011;8068;51.322;9.450;2022-11-21T05:31:53;12.70;;;10.37;;
15938;SDS011;8068;51.322;9.450;2022-11-21T05:34:19;12.17;;;10.50;;
15938;SDS011;8068;51.322;9.450;2022-11-21T05:36:52;10.50;;;9.47;;
15938;SDS011;8068;51.322;9.450;2022-11-21T05:39:24;10.93;;;9.40;;
15938;SDS011;8068;51.322;9.450;2022-11-21T05:41:51;11.60;;;10.03;;
15938;SDS011;8068;51.322;9.450;2022-11-21T05:44:21;11.53;;;10.23;;
15938;SDS011;8068;51.322;9.450;2022-11-21T05:46:51;10.50;;;9.47;;
15938;SDS011;8068;51.322;9.450;2022-11-21T05:49:21;10.57;;;9.57;;
15938;SDS011;8068;51.322;9.450;2022-11-21T05:51:51;15.30;;;9.97;;
15938;SDS011;8068;51.322;9.450;2022-11-21T05:54:25;11.87;;;8.30;;
15938;SDS011;8068;51.322;9.450;2022-11-21T05:56:54;10.90;;;9.80;;
15938;SDS011;8068;51.322;9.450;2022-11-21T05:59:23;10.57;;;8.97;;
15938;SDS011;8068;51.322;9.450;2022-11-21T06:01:53;10.67;;;9.57;;
15938;SDS011;8068;51.322;9.450;2022-11-21T06:04:38;10.23;;;9.23;;
15938;SDS011;8068;51.322;9.450;2022-11-21T06:07:04;12.80;;;9.77;;
15938;SDS011;8068;51.322;9.450;2022-11-21T06:09:30;13.20;;;10.03;;
15938;SDS011;8068;51.322;9.450;2022-11-21T06:12:01;9.93;;;9.00;;
15938;SDS011;8068;51.322;9.450;2022-11-21T06:14:27;9.43;;;8.63;;
15938;SDS011;8068;51.322;9.450;2022-11-21T06:16:55;10.47;;;9.57;;
15938;SDS011;8068;51.322;9.450;2022-11-21T06:19:26;11.60;;;9.70;;
15938;SDS011;8068;51.322;9.450;2022-11-21T06:21:56;9.37;;;8.60;;
15938;SDS011;8068;51.322;9.450;2022-11-21T06:24:27;9.77;;;8.60;;
15938;SDS011;8068;51.322;9.450;2022-11-21T06:26:57;9.57;;;8.80;;
15938;SDS011;8068;51.322;9.450;2022-11-21T06:29:28;11.13;;;9.67;;
15938;SDS011;8068;51.322;9.450;2022-11-21T06:31:58;10.67;;;9.23;;
15938;SDS011;8068;51.322;9.450;2022-11-21T06:34:28;12.90;;;9.50;;
15938;SDS011;8068;51.322;9.450;2022-11-21T06:36:58;9.47;;;8.53;;
15938;SDS011;8068;51.322;9.450;2022-11-21T06:39:30;13.17;;;9.43;;
15938;SDS011;8068;51.322;9.450;2022-11-21T06:42:00;9.73;;;8.93;;
15938;SDS011;8068;51.322;9.450;2022-11-21T06:44:28;9.40;;;8.60;;
15938;SDS011;8068;51.322;9.450;2022-11-21T06:46:58;10.03;;;9.03;;
15938;SDS011;8068;51.322;9.450;2022-11-21T06:49:29;10.57;;;9.37;;
15938;SDS011;8068;51.322;9.450;2022-11-21T06:51:58;11.40;;;10.10;;
15938;SDS011;8068;51.322;9.450;2022-11-21T06:54:28;9.60;;;8.53;;
15938;SDS011;8068;51.322;9.450;2022-11-21T06:57:01;10.27;;;9.23;;
15938;SDS011;8068;51.322;9.450;2022-11-21T06:59:31;11.00;;;9.30;;
15938;SDS011;8068;51.322;9.450;2022-11-21T07:02:00;11.10;;;10.00;;
15938;SDS011;8068;51.322;9.450;2022-11-21T07:04:30;10.80;;;9.80;;
15938;SDS011;8068;51.322;9.450;2022-11-21T07:07:00;11.27;;;10.10;;
15938;SDS011;8068;51.322;9.450;2022-11-21T07:09:29;12.07;;;10.80;;
15938;SDS011;8068;51.322;9.450;2022-11-21T07:12:00;11.90;;;10.10;;
15938;SDS011;8068;51.322;9.450;2022-11-21T07:14:51;12.37;;;11.07;;
15938;SDS011;8068;51.322;9.450;2022-11-21T07:17:17;11.67;;;10.43;;
15938;SDS011;8068;51.322;9.450;2022-11-21T07:19:43;15.30;;;10.63;;
15938;SDS011;8068;51.322;9.450;2022-11-21T07:22:09;12.27;;;10.97;;
15938;SDS011;8068;51.322;9.450;2022-11-21T07:24:35;20.40;;;10.80;;
15938;SDS011;8068;51.322;9.450;2022-11-21T07:27:01;16.80;;;10.83;;
15938;SDS011;8068;51.322;9.450;2022-11-21T07:29:29;13.03;;;11.03;;
15938;SDS011;8068;51.322;9.450;2022-11-21T07:32:00;11.87;;;10.67;;
15938;SDS011;8068;51.322;9.450;2022-11-21T07:34:29;13.10;;;10.90;;
15938;SDS011;8068;51.322;9.450;2022-11-21T07:36:59;14.83;;;11.90;;
15938;SDS011;8068;51.322;9.450;2022-11-21T07:39:29;18.53;;;12.90;;
15938;SDS011;8068;51.322;9.450;2022-11-21T07:42:02;14.07;;;11.60;;
15938;SDS011;8068;51.322;9.450;2022-11-21T07:44:32;13.43;;;11.30;;
15938;SDS011;8068;51.322;9.450;2022-11-21T07:47:02;11.77;;;10.57;;
15938;SDS011;8068;51.322;9.450;2022-11-21T07:49:31;14.80;;;11.60;;
15938;SDS011;8068;51.322;9.450;2022-11-21T07:52:01;14.57;;;11.90;;
15938;SDS011;8068;51.322;9.450;2022-11-21T07:54:31;13.63;;;10.70;;
15938;SDS011;8068;51.322;9.450;2022-11-21T07:57:01;16.13;;;11.20;;
15938;SDS011;8068;51.322;9.450;2022-11-21T07:59:31;14.37;;;11.43;;
15938;SDS011;8068;51.322;9.450;2022-11-21T08:02:01;12.60;;;11.30;;
15938;SDS011;8068;51.322;9.450;2022-11-21T08:04:30;13.13;;;10.67;;
15938;SDS011;8068;51.322;9.450;2022-11-21T08:07:00;12.40;;;10.57;;
15938;SDS011;8068;51.322;9.450;2022-11-21T08:09:35;12.50;;;11.20;;
15938;SDS011;8068;51.322;9.450;2022-11-21T08:12:05;18.80;;;11.70;;
15938;SDS011;8068;51.322;9.450;2022-11-21T08:14:35;16.63;;;11.60;;
15938;SDS011;8068;51.322;9.450;2022-11-21T08:17:05;15.10;;;10.30;;
15938;SDS011;8068;51.322;9.450;2022-11-21T08:19:35;21.20;;;11.83;;
15938;SDS011;8068;51.322;9.450;2022-11-21T08:22:04;14.80;;;11.93;;
15938;SDS011;8068;51.322;9.450;2022-11-21T08:24:34;14.17;;;11.40;;
15938;SDS011;8068;51.322;9.450;2022-11-21T08:27:06;18.47;;;12.70;;
15938;SDS011;8068;51.322;9.450;2022-11-21T08:29:36;21.77;;;12.70;;
15938;SDS011;8068;51.322;9.450;2022-11-21T08:32:05;17.23;;;13.30;;
15938;SDS011;8068;51.322;9.450;2022-11-21T08:34:35;14.10;;;12.07;;
15938;SDS011;8068;51.322;9.450;2022-11-21T08:37:08;17.53;;;11.37;;
15938;SDS011;8068;51.322;9.450;2022-11-21T08:39:36;14.93;;;12.50;;
15938;SDS011;8068;51.322;9.450;2022-11-21T08:42:06;13.73;;;12.00;;
15938;SDS011;8068;51.322;9.450;2022-11-21T08:44:36;15.70;;;12.13;;
15938;SDS011;8068;51.322;9.450;2022-11-21T08:47:06;13.40;;;11.93;;
15938;SDS011;8068;51.322;9.450;2022-11-21T08:49:35;15.03;;;12.30;;
15938;SDS011;8068;51.322;9.450;2022-11-21T08:52:05;16.92;;;14.07;;
15938;SDS011;8068;51.322;9.450;2022-11-21T08:54:38;20.03;;;14.27;;
15938;SDS011;8068;51.322;9.450;2022-11-21T08:57:08;15.87;;;12.70;;
15938;SDS011;8068;51.322;9.450;2022-11-21T08:59:37;17.77;;;12.33;;
15938;SDS011;8068;51.322;9.450;2022-11-21T09:02:09;21.63;;;12.90;;
15938;SDS011;8068;51.322;9.450;2022-11-21T09:04:37;16.30;;;12.43;;
15938;SDS011;8068;51.322;9.450;2022-11-21T09:07:06;16.97;;;12.13;;
15938;SDS011;8068;51.322;9.450;2022-11-21T09:09:35;15.50;;;12.00;;
15938;SDS011;8068;51.322;9.450;2022-11-21T09:12:05;16.63;;;11.83;;
15938;SDS011;8068;51.322;9.450;2022-11-21T09:14:34;18.30;;;13.00;;
15938;SDS011;8068;51.322;9.450;2022-11-21T09:17:19;14.37;;;11.50;;
15938;SDS011;8068;51.322;9.450;2022-11-21T09:20:08;20.20;;;13.30;;
15938;SDS011;8068;51.322;9.450;2022-11-21T09:22:37;17.70;;;12.50;;
15938;SDS011;8068;51.322;9.450;2022-11-21T09:25:03;15.17;;;12.90;;
15938;SDS011;8068;51.322;9.450;2022-11-21T09:27:30;17.07;;;12.20;;
15938;SDS011;8068;51.322;9.450;2022-11-21T09:30:01;17.50;;;12.50;;
15938;SDS011;8068;51.322;9.450;2022-11-21T09:32:27;19.90;;;12.30;;
15938;SDS011;8068;51.322;9.450;2022-11-21T09:34:53;16.50;;;13.13;;
15938;SDS011;8068;51.322;9.450;2022-11-21T09:37:19;14.57;;;12.50;;
15938;SDS011;8068;51.322;9.450;2022-11-21T09:39:50;21.00;;;12.63;;
15938;SDS011;8068;51.322;9.450;2022-11-21T09:42:40;15.63;;;13.07;;
15938;SDS011;8068;51.322;9.450;2022-11-21T09:45:32;19.23;;;13.50;;
15938;SDS011;8068;51.322;9.450;2022-11-21T09:48:08;17.90;;;13.07;;
15938;SDS011;8068;51.322;9.450;2022-11-21T09:50:47;17.07;;;12.30;;
15938;SDS011;8068;51.322;9.450;2022-11-21T09:53:31;14.80;;;12.40;;
15938;SDS011;8068;51.322;9.450;2022-11-21T09:56:05;14.87;;;11.17;;
15938;SDS011;8068;51.322;9.450;2022-11-21T09:58:42;13.87;;;12.37;;
15938;SDS011;8068;51.322;9.450;2022-11-21T10:01:13;13.53;;;11.00;;
15938;SDS011;8068;51.322;9.450;2022-11-21T10:03:45;14.57;;;11.70;;
15938;SDS011;8068;51.322;9.450;2022-11-21T10:26:41;19.80;;;12.40;;
15938;SDS011;8068;51.322;9.450;2022-11-21T10:34:55;12.97;;;11.27;;
15938;SDS011;8068;51.322;9.450;2022-11-21T10:37:34;16.93;;;11.77;;
15938;SDS011;8068;51.322;9.450;2022-11-21T10:40:07;12.90;;;11.47;;
15938;SDS011;8068;51.322;9.450;2022-11-21T10:42:43;15.50;;;12.00;;
15938;SDS011;8068;51.322;9.450;2022-11-21T10:45:16;15.00;;;12.17;;
15938;SDS011;8068;51.322;9.450;2022-11-21T10:47:49;13.50;;;12.10;;
15938;SDS011;8068;51.322;9.450;2022-11-21T10:56:00;13.53;;;11.27;;
15938;SDS011;8068;51.322;9.450;2022-11-21T10:58:45;13.07;;;11.47;;
15938;SDS011;8068;51.322;9.450;2022-11-21T11:06:53;16.07;;;12.57;;
15938;SDS011;8068;51.322;9.450;2022-11-21T11:09:21;14.50;;;12.10;;
15938;SDS011;8068;51.322;9.450;2022-11-21T11:11:55;12.83;;;11.50;;
15938;SDS011;8068;51.322;9.450;2022-11-21T11:14:49;14.03;;;12.40;;
15938;SDS011;8068;51.322;9.450;2022-11-21T11:17:24;15.20;;;12.27;;
15938;SDS011;8068;51.322;9.450;2022-11-21T11:19:58;16.13;;;12.80;;
15938;SDS011;8068;51.322;9.450;2022-11-21T11:22:35;14.27;;;12.30;;
15938;SDS011;8068;51.322;9.450;2022-11-21T11:25:06;15.50;;;12.50;;
15938;SDS011;8068;51.322;9.450;2022-11-21T11:27:39;14.97;;;12.33;;
15938;SDS011;8068;51.322;9.450;2022-11-21T11:30:16;16.93;;;13.43;;
15938;SDS011;8068;51.322;9.450;2022-11-21T11:32:47;13.80;;;12.40;;
15938;SDS011;8068;51.322;9.450;2022-11-21T11:35:21;17.27;;;13.30;;
15938;SDS011;8068;51.322;9.450;2022-11-21T11:37:58;15.13;;;13.00;;
15938;SDS011;8068;51.322;9.450;2022-11-21T11:52:28;18.30;;;12.10;;
15938;SDS011;8068;51.322;9.450;2022-11-21T11:54:59;14.23;;;12.47;;
15938;SDS011;8068;51.322;9.450;2022-11-21T11:57:32;18.73;;;12.20;;
15938;SDS011;8068;51.322;9.450;2022-11-21T12:08:40;12.67;;;11.30;;
15938;SDS011;8068;51.322;9.450;2022-11-21T12:15:22;12.53;;;11.33;;
15938;SDS011;8068;51.322;9.450;2022-11-21T12:24:11;16.33;;;11.97;;
15938;SDS011;8068;51.322;9.450;2022-11-21T12:42:40;11.40;;;8.90;;
15938;SDS011;8068;51.322;9.450;2022-11-21T12:45:30;12.80;;;9.80;;
15938;SDS011;8068;51.322;9.450;2022-11-21T12:57:09;9.20;;;8.40;;
15938;SDS011;8068;51.322;9.450;2022-11-21T13:05:08;11.57;;;10.23;;
15938;SDS011;8068;51.322;9.450;2022-11-21T13:07:45;12.20;;;10.50;;
15938;SDS011;8068;51.322;9.450;2022-11-21T13:10:16;9.23;;;8.43;;
15938;SDS011;8068;51.322;9.450;2022-11-21T13:12:47;9.67;;;8.73;;
15938;SDS011;8068;51.322;9.450;2022-11-21T13:16:08;10.30;;;9.30;;
15938;SDS011;8068;51.322;9.450;2022-11-21T13:18:29;11.63;;;10.37;;
15938;SDS011;8068;51.322;9.450;2022-11-21T13:21:03;11.67;;;10.10;;
15938;SDS011;8068;51.322;9.450;2022-11-21T13:23:39;10.70;;;9.70;;
15938;SDS011;8068;51.322;9.450;2022-11-21T13:28:49;8.90;;;8.10;;
15938;SDS011;8068;51.322;9.450;2022-11-21T13:31:30;10.20;;;9.30;;
15938;SDS011;8068;51.322;9.450;2022-11-21T13:33:58;9.33;;;8.53;;
15938;SDS011;8068;51.322;9.450;2022-11-21T13:47:03;13.77;;;11.77;;
15938;SDS011;8068;51.322;9.450;2022-11-21T13:50:02;16.10;;;12.87;;
15938;SDS011;8068;51.322;9.450;2022-11-21T13:52:59;13.10;;;11.80;;
15938;SDS011;8068;51.322;9.450;2022-11-21T14:09:57;12.53;;;10.90;;
15938;SDS011;8068;51.322;9.450;2022-11-21T14:12:34;11.70;;;10.57;;
15938;SDS011;8068;51.322;9.450;2022-11-21T14:15:22;12.03;;;10.50;;
15938;SDS011;8068;51.322;9.450;2022-11-21T14:18:21;11.00;;;9.90;;
15938;SDS011;8068;51.322;9.450;2022-11-21T14:20:58;11.17;;;10.10;;
15938;SDS011;8068;51.322;9.450;2022-11-21T14:23:36;17.00;;;10.77;;
15938;SDS011;8068;51.322;9.450;2022-11-21T14:26:12;16.50;;;10.40;;
15938;SDS011;8068;51.322;9.450;2022-11-21T14:28:40;14.67;;;12.47;;
15938;SDS011;8068;51.322;9.450;2022-11-21T14:31:06;13.00;;;11.60;;
15938;SDS011;8068;51.322;9.450;2022-11-21T14:33:35;13.47;;;12.07;;
15938;SDS011;8068;51.322;9.450;2022-11-21T14:36:06;18.80;;;12.90;;
15938;SDS011;8068;51.322;9.450;2022-11-21T14:38:44;18.20;;;14.37;;
15938;SDS011;8068;51.322;9.450;2022-11-21T14:41:38;20.13;;;16.90;;
15938;SDS011;8068;51.322;9.450;2022-11-21T14:44:05;22.80;;;16.67;;
15938;SDS011;8068;51.322;9.450;2022-11-21T14:46:43;21.17;;;16.50;;
15938;SDS011;8068;51.322;9.450;2022-11-21T14:51:41;21.13;;;15.90;;
15938;SDS011;8068;51.322;9.450;2022-11-21T14:54:11;23.10;;;16.87;;
15938;SDS011;8068;51.322;9.450;2022-11-21T14:56:46;19.30;;;14.43;;
15938;SDS011;8068;51.322;9.450;2022-11-21T14:59:22;20.10;;;15.27;;
15938;SDS011;8068;51.322;9.450;2022-11-21T15:01:53;20.50;;;14.20;;
15938;SDS011;8068;51.322;9.450;2022-11-21T15:04:30;46.90;;;26.30;;
15938;SDS011;8068;51.322;9.450;2022-11-21T15:07:02;28.90;;;19.80;;
15938;SDS011;8068;51.322;9.450;2022-11-21T15:09:32;24.13;;;16.23;;
15938;SDS011;8068;51.322;9.450;2022-11-21T15:12:24;20.93;;;15.23;;
15938;SDS011;8068;51.322;9.450;2022-11-21T15:15:02;23.53;;;14.00;;
15938;SDS011;8068;51.322;9.450;2022-11-21T15:17:36;22.27;;;14.53;;
15938;SDS011;8068;51.322;9.450;2022-11-21T15:20:15;19.37;;;14.10;;
15938;SDS011;8068;51.322;9.450;2022-11-21T15:22:53;17.50;;;13.80;;
15938;SDS011;8068;51.322;9.450;2022-11-21T15:25:26;21.97;;;14.73;;
15938;SDS011;8068;51.322;9.450;2022-11-21T15:30:29;28.30;;;15.17;;
15938;SDS011;8068;51.322;9.450;2022-11-21T15:46:19;17.63;;;13.93;;
15938;SDS011;8068;51.322;9.450;2022-11-21T15:48:50;23.37;;;16.83;;
15938;SDS011;8068;51.322;9.450;2022-11-21T15:51:24;27.20;;;17.83;;
15938;SDS011;8068;51.322;9.450;2022-11-21T15:54:30;35.33;;;21.03;;
15938;SDS011;8068;51.322;9.450;2022-11-21T15:57:04;31.23;;;21.20;;
15938;SDS011;8068;51.322;9.450;2022-11-21T15:59:34;28.77;;;19.93;;
15938;SDS011;8068;51.322;9.450;2022-11-21T16:02:04;27.37;;;18.70;;
15938;SDS011;8068;51.322;9.450;2022-11-21T16:04:37;26.33;;;17.60;;
15938;SDS011;8068;51.322;9.450;2022-11-21T16:07:07;25.83;;;18.30;;
15938;SDS011;8068;51.322;9.450;2022-11-21T16:09:37;26.23;;;18.47;;
15938;SDS011;8068;51.322;9.450;2022-11-21T16:12:09;27.47;;;18.03;;
15938;SDS011;8068;51.322;9.450;2022-11-21T16:14:39;30.37;;;19.63;;
15938;SDS011;8068;51.322;9.450;2022-11-21T16:17:10;25.57;;;18.63;;
15938;SDS011;8068;51.322;9.450;2022-11-21T16:19:39;30.70;;;19.77;;
15938;SDS011;8068;51.322;9.450;2022-11-21T16:22:09;27.93;;;18.90;;
15938;SDS011;8068;51.322;9.450;2022-11-21T16:24:41;27.73;;;18.50;;
15938;SDS011;8068;51.322;9.450;2022-11-21T16:27:11;29.70;;;19.30;;
15938;SDS011;8068;51.322;9.450;2022-11-21T16:29:42;32.17;;;20.87;;
15938;SDS011;8068;51.322;9.450;2022-11-21T16:32:15;32.23;;;22.33;;
15938;SDS011;8068;51.322;9.450;2022-11-21T16:34:46;36.50;;;23.13;;
15938;SDS011;8068;51.322;9.450;2022-11-21T16:37:16;34.80;;;23.57;;
15938;SDS011;8068;51.322;9.450;2022-11-21T16:39:51;44.33;;;28.20;;
15938;SDS011;8068;51.322;9.450;2022-11-21T16:42:22;35.93;;;25.00;;
15938;SDS011;8068;51.322;9.450;2022-11-21T16:44:52;36.43;;;24.63;;
15938;SDS011;8068;51.322;9.450;2022-11-21T16:47:22;32.20;;;22.03;;
15938;SDS011;8068;51.322;9.450;2022-11-21T16:49:52;42.57;;;28.60;;
15938;SDS011;8068;51.322;9.450;2022-11-21T16:52:23;52.53;;;27.97;;
15938;SDS011;8068;51.322;9.450;2022-11-21T16:54:53;59.57;;;39.03;;
15938;SDS011;8068;51.322;9.450;2022-11-21T16:57:28;62.70;;;39.00;;
15938;SDS011;8068;51.322;9.450;2022-11-21T16:59:58;55.33;;;33.50;;
15938;SDS011;8068;51.322;9.450;2022-11-21T17:02:30;65.93;;;31.13;;
15938;SDS011;8068;51.322;9.450;2022-11-21T17:05:00;56.50;;;32.73;;
15938;SDS011;8068;51.322;9.450;2022-11-21T17:07:31;52.13;;;32.30;;
15938;SDS011;8068;51.322;9.450;2022-11-21T17:10:02;50.20;;;30.40;;
15938;SDS011;8068;51.322;9.450;2022-11-21T17:12:36;40.47;;;26.63;;
15938;SDS011;8068;51.322;9.450;2022-11-21T17:15:13;38.90;;;26.60;;
15938;SDS011;8068;51.322;9.450;2022-11-21T17:17:44;40.70;;;26.17;;
15938;SDS011;8068;51.322;9.450;2022-11-21T17:20:14;39.70;;;23.80;;
15938;SDS011;8068;51.322;9.450;2022-11-21T17:22:46;30.33;;;21.97;;
15938;SDS011;8068;51.322;9.450;2022-11-21T17:25:17;30.07;;;21.53;;
15938;SDS011;8068;51.322;9.450;2022-11-21T17:27:48;29.00;;;19.87;;
15938;SDS011;8068;51.322;9.450;2022-11-21T17:30:26;30.60;;;21.10;;
15938;SDS011;8068;51.322;9.450;2022-11-21T17:32:56;32.70;;;22.10;;
15938;SDS011;8068;51.322;9.450;2022-11-21T17:35:26;32.70;;;21.90;;
15938;SDS011;8068;51.322;9.450;2022-11-21T17:37:55;31.90;;;21.60;;
15938;SDS011;8068;51.322;9.450;2022-11-21T17:40:25;29.20;;;20.77;;